sensor_id;sensor_type;location;lat;lon;timestamp;temperature;humidity
10812;DHT22;5458;51.496;7.334;2022-11-03T00:01:44;12.00;98.20
10812;DHT22;5458;51.496;7.334;2022-11-03T00:04:15;12.00;98.30
10812;DHT22;5458;51.496;7.334;2022-11-03T00:06:42;12.00;98.30
10812;DHT22;5458;51.496;7.334;2022-11-03T00:09:10;12.00;98.30
10812;DHT22;5458;51.496;7.334;2022-11-03T00:11:37;12.00;98.40
10812;DHT22;5458;51.496;7.334;2022-11-03T00:14:03;12.00;98.50
10812;DHT22;5458;51.496;7.334;2022-11-03T00:16:29;12.00;98.60
10812;DHT22;5458;51.496;7.334;2022-11-03T00:18:55;11.90;98.60
10812;DHT22;5458;51.496;7.334;2022-11-03T00:21:21;12.00;98.80
10812;DHT22;5458;51.496;7.334;2022-11-03T00:23:47;12.00;98.80
10812;DHT22;5458;51.496;7.334;2022-11-03T00:26:15;12.00;99.00
10812;DHT22;5458;51.496;7.334;2022-11-03T00:28:43;12.00;99.10
10812;DHT22;5458;51.496;7.334;2022-11-03T00:31:12;11.90;99.40
10812;DHT22;5458;51.496;7.334;2022-11-03T00:33:39;11.90;99.50
10812;DHT22;5458;51.496;7.334;2022-11-03T00:36:06;11.90;99.50
10812;DHT22;5458;51.496;7.334;2022-11-03T00:38:32;11.90;99.60
10812;DHT22;5458;51.496;7.334;2022-11-03T00:41:01;11.90;99.70
10812;DHT22;5458;51.496;7.334;2022-11-03T00:43:28;11.90;99.90
10812;DHT22;5458;51.496;7.334;2022-11-03T00:45:54;11.90;99.80
10812;DHT22;5458;51.496;7.334;2022-11-03T00:48:20;11.90;99.80
10812;DHT22;5458;51.496;7.334;2022-11-03T00:53:29;11.90;99.90
10812;DHT22;5458;51.496;7.334;2022-11-03T00:55:55;11.90;99.90
10812;DHT22;5458;51.496;7.334;2022-11-03T00:58:21;11.90;99.90
10812;DHT22;5458;51.496;7.334;2022-11-03T01:00:46;11.90;99.90
10812;DHT22;5458;51.496;7.334;2022-11-03T01:03:12;11.90;99.90
10812;DHT22;5458;51.496;7.334;2022-11-03T01:05:43;11.90;99.90
10812;DHT22;5458;51.496;7.334;2022-11-03T01:08:34;11.90;99.90
10812;DHT22;5458;51.496;7.334;2022-11-03T01:11:13;11.90;99.90
10812;DHT22;5458;51.496;7.334;2022-11-03T01:13:58;11.90;99.90
10812;DHT22;5458;51.496;7.334;2022-11-03T01:16:24;11.90;99.90
10812;DHT22;5458;51.496;7.334;2022-11-03T01:18:50;11.90;99.90
10812;DHT22;5458;51.496;7.334;2022-11-03T01:21:16;12.00;99.90
10812;DHT22;5458;51.496;7.334;2022-11-03T01:23:42;12.00;99.90
10812;DHT22;5458;51.496;7.334;2022-11-03T01:26:09;12.00;99.90
10812;DHT22;5458;51.496;7.334;2022-11-03T01:28:36;12.00;99.90
10812;DHT22;5458;51.496;7.334;2022-11-03T01:31:07;12.00;99.90
10812;DHT22;5458;51.496;7.334;2022-11-03T01:33:32;12.00;99.90
10812;DHT22;5458;51.496;7.334;2022-11-03T01:35:58;12.00;99.90
10812;DHT22;5458;51.496;7.334;2022-11-03T01:38:24;12.00;99.90
10812;DHT22;5458;51.496;7.334;2022-11-03T01:40:49;12.00;99.90
10812;DHT22;5458;51.496;7.334;2022-11-03T01:43:16;12.10;99.90
10812;DHT22;5458;51.496;7.334;2022-11-03T01:45:43;12.10;99.90
10812;DHT22;5458;51.496;7.334;2022-11-03T01:48:10;12.00;99.90
10812;DHT22;5458;51.496;7.334;2022-11-03T01:50:36;12.10;99.90
10812;DHT22;5458;51.496;7.334;2022-11-03T01:53:02;12.10;99.90
10812;DHT22;5458;51.496;7.334;2022-11-03T01:55:32;12.10;99.90
10812;DHT22;5458;51.496;7.334;2022-11-03T01:58:06;12.10;99.90
10812;DHT22;5458;51.496;7.334;2022-11-03T02:00:33;12.10;99.90
10812;DHT22;5458;51.496;7.334;2022-11-03T02:03:00;12.00;99.90
10812;DHT22;5458;51.496;7.334;2022-11-03T02:05:26;12.00;99.90
10812;DHT22;5458;51.496;7.334;2022-11-03T02:10:54;12.00;99.90
10812;DHT22;5458;51.496;7.334;2022-11-03T02:13:24;12.00;99.90
10812;DHT22;5458;51.496;7.334;2022-11-03T02:15:55;12.00;99.90
10812;DHT22;5458;51.496;7.334;2022-11-03T02:18:27;12.00;99.90
10812;DHT22;5458;51.496;7.334;2022-11-03T02:24:02;12.00;99.90
10812;DHT22;5458;51.496;7.334;2022-11-03T02:26:32;12.00;99.90
10812;DHT22;5458;51.496;7.334;2022-11-03T02:28:58;12.00;99.90
10812;DHT22;5458;51.496;7.334;2022-11-03T02:31:42;12.00;99.90
10812;DHT22;5458;51.496;7.334;2022-11-03T02:36:45;12.00;99.90
10812;DHT22;5458;51.496;7.334;2022-11-03T02:41:48;12.00;99.90
10812;DHT22;5458;51.496;7.334;2022-11-03T02:44:17;12.00;99.90
10812;DHT22;5458;51.496;7.334;2022-11-03T02:46:45;12.00;99.90
10812;DHT22;5458;51.496;7.334;2022-11-03T02:49:12;12.00;99.90
10812;DHT22;5458;51.496;7.334;2022-11-03T02:51:38;12.00;99.90
10812;DHT22;5458;51.496;7.334;2022-11-03T02:54:19;12.00;99.90
10812;DHT22;5458;51.496;7.334;2022-11-03T02:56:52;12.00;99.90
10812;DHT22;5458;51.496;7.334;2022-11-03T02:59:26;12.00;99.90
10812;DHT22;5458;51.496;7.334;2022-11-03T03:01:58;12.00;99.90
10812;DHT22;5458;51.496;7.334;2022-11-03T03:04:33;12.00;99.90
10812;DHT22;5458;51.496;7.334;2022-11-03T03:07:00;12.00;99.90
10812;DHT22;5458;51.496;7.334;2022-11-03T03:12:27;11.90;99.90
10812;DHT22;5458;51.496;7.334;2022-11-03T03:14:57;11.90;99.90
10812;DHT22;5458;51.496;7.334;2022-11-03T03:17:50;11.90;99.90
10812;DHT22;5458;51.496;7.334;2022-11-03T03:20:27;11.90;99.90
10812;DHT22;5458;51.496;7.334;2022-11-03T03:23:06;11.90;99.90
10812;DHT22;5458;51.496;7.334;2022-11-03T03:25:37;12.00;99.90
10812;DHT22;5458;51.496;7.334;2022-11-03T03:28:10;11.90;99.90
10812;DHT22;5458;51.496;7.334;2022-11-03T03:30:41;12.00;99.90
10812;DHT22;5458;51.496;7.334;2022-11-03T03:33:08;11.90;99.90
10812;DHT22;5458;51.496;7.334;2022-11-03T03:35:38;12.00;99.90
10812;DHT22;5458;51.496;7.334;2022-11-03T03:38:10;11.90;99.90
10812;DHT22;5458;51.496;7.334;2022-11-03T03:40:39;11.90;99.90
10812;DHT22;5458;51.496;7.334;2022-11-03T03:43:08;11.90;99.90
10812;DHT22;5458;51.496;7.334;2022-11-03T03:45:35;11.90;99.90
10812;DHT22;5458;51.496;7.334;2022-11-03T03:48:02;12.00;99.90
10812;DHT22;5458;51.496;7.334;2022-11-03T03:50:31;12.00;99.90
10812;DHT22;5458;51.496;7.334;2022-11-03T03:53:04;12.00;99.90
10812;DHT22;5458;51.496;7.334;2022-11-03T03:55:35;12.00;99.90
10812;DHT22;5458;51.496;7.334;2022-11-03T03:58:03;12.00;99.90
10812;DHT22;5458;51.496;7.334;2022-11-03T04:00:28;12.00;99.90
10812;DHT22;5458;51.496;7.334;2022-11-03T04:02:58;12.00;99.90
10812;DHT22;5458;51.496;7.334;2022-11-03T04:05:24;12.00;99.90
10812;DHT22;5458;51.496;7.334;2022-11-03T04:07:50;12.00;99.90
10812;DHT22;5458;51.496;7.334;2022-11-03T04:10:18;12.00;99.90
10812;DHT22;5458;51.496;7.334;2022-11-03T04:12:44;12.00;99.90
10812;DHT22;5458;51.496;7.334;2022-11-03T04:15:29;12.00;99.90
10812;DHT22;5458;51.496;7.334;2022-11-03T04:18:13;12.00;99.90
10812;DHT22;5458;51.496;7.334;2022-11-03T04:20:57;12.00;99.90
10812;DHT22;5458;51.496;7.334;2022-11-03T04:23:42;12.00;99.90
10812;DHT22;5458;51.496;7.334;2022-11-03T04:26:12;12.00;99.90
10812;DHT22;5458;51.496;7.334;2022-11-03T04:28:39;12.00;99.90
10812;DHT22;5458;51.496;7.334;2022-11-03T04:31:12;12.00;99.90
10812;DHT22;5458;51.496;7.334;2022-11-03T04:33:37;12.00;99.90
10812;DHT22;5458;51.496;7.334;2022-11-03T04:36:11;12.00;99.90
10812;DHT22;5458;51.496;7.334;2022-11-03T04:38:38;12.00;99.90
10812;DHT22;5458;51.496;7.334;2022-11-03T04:41:14;12.00;99.90
10812;DHT22;5458;51.496;7.334;2022-11-03T04:43:40;12.10;99.90
10812;DHT22;5458;51.496;7.334;2022-11-03T04:46:10;12.10;99.90
10812;DHT22;5458;51.496;7.334;2022-11-03T04:48:36;12.10;99.90
10812;DHT22;5458;51.496;7.334;2022-11-03T04:51:16;12.10;99.90
10812;DHT22;5458;51.496;7.334;2022-11-03T04:53:51;12.10;99.90
10812;DHT22;5458;51.496;7.334;2022-11-03T04:56:22;12.10;99.90
10812;DHT22;5458;51.496;7.334;2022-11-03T04:58:48;12.10;99.90
10812;DHT22;5458;51.496;7.334;2022-11-03T05:01:19;12.10;99.90
10812;DHT22;5458;51.496;7.334;2022-11-03T05:03:48;12.10;99.90
10812;DHT22;5458;51.496;7.334;2022-11-03T05:06:19;12.20;99.90
10812;DHT22;5458;51.496;7.334;2022-11-03T05:08:48;12.20;99.90
10812;DHT22;5458;51.496;7.334;2022-11-03T05:11:19;12.20;99.90
10812;DHT22;5458;51.496;7.334;2022-11-03T05:13:46;12.20;99.90
10812;DHT22;5458;51.496;7.334;2022-11-03T05:16:12;12.20;99.90
10812;DHT22;5458;51.496;7.334;2022-11-03T05:18:41;12.20;99.90
10812;DHT22;5458;51.496;7.334;2022-11-03T05:21:14;12.10;99.90
10812;DHT22;5458;51.496;7.334;2022-11-03T05:23:47;12.10;99.90
10812;DHT22;5458;51.496;7.334;2022-11-03T05:26:19;12.10;99.90
10812;DHT22;5458;51.496;7.334;2022-11-03T05:28:54;12.10;99.90
10812;DHT22;5458;51.496;7.334;2022-11-03T05:31:29;12.10;99.90
10812;DHT22;5458;51.496;7.334;2022-11-03T05:34:00;12.10;99.90
10812;DHT22;5458;51.496;7.334;2022-11-03T05:36:29;12.20;99.90
10812;DHT22;5458;51.496;7.334;2022-11-03T05:38:58;12.20;99.90
10812;DHT22;5458;51.496;7.334;2022-11-03T05:41:27;12.20;99.90
10812;DHT22;5458;51.496;7.334;2022-11-03T05:44:33;12.20;99.90
10812;DHT22;5458;51.496;7.334;2022-11-03T05:47:02;12.20;99.90
10812;DHT22;5458;51.496;7.334;2022-11-03T05:49:28;12.20;99.90
10812;DHT22;5458;51.496;7.334;2022-11-03T05:51:54;12.20;99.90
10812;DHT22;5458;51.496;7.334;2022-11-03T05:54:24;12.20;99.90
10812;DHT22;5458;51.496;7.334;2022-11-03T05:56:51;12.20;99.90
10812;DHT22;5458;51.496;7.334;2022-11-03T05:59:22;12.20;99.90
10812;DHT22;5458;51.496;7.334;2022-11-03T06:01:50;12.20;99.90
10812;DHT22;5458;51.496;7.334;2022-11-03T06:06:49;12.20;99.90
10812;DHT22;5458;51.496;7.334;2022-11-03T06:09:20;12.20;99.90
10812;DHT22;5458;51.496;7.334;2022-11-03T06:11:48;12.20;99.90
10812;DHT22;5458;51.496;7.334;2022-11-03T06:14:23;12.20;99.90
10812;DHT22;5458;51.496;7.334;2022-11-03T06:16:54;12.20;99.90
10812;DHT22;5458;51.496;7.334;2022-11-03T06:21:56;12.30;99.90
10812;DHT22;5458;51.496;7.334;2022-11-03T06:24:25;12.30;99.90
10812;DHT22;5458;51.496;7.334;2022-11-03T06:26:53;12.30;99.90
10812;DHT22;5458;51.496;7.334;2022-11-03T06:29:20;12.30;99.90
10812;DHT22;5458;51.496;7.334;2022-11-03T06:31:48;12.30;99.90
10812;DHT22;5458;51.496;7.334;2022-11-03T06:36:56;12.30;99.90
10812;DHT22;5458;51.496;7.334;2022-11-03T06:39:23;12.30;99.90
10812;DHT22;5458;51.496;7.334;2022-11-03T06:41:49;12.30;99.90
10812;DHT22;5458;51.496;7.334;2022-11-03T06:44:26;12.30;99.90
10812;DHT22;5458;51.496;7.334;2022-11-03T06:46:58;12.40;99.90
10812;DHT22;5458;51.496;7.334;2022-11-03T06:49:33;12.40;99.90
10812;DHT22;5458;51.496;7.334;2022-11-03T06:57:37;12.40;99.90
10812;DHT22;5458;51.496;7.334;2022-11-03T07:00:19;12.40;99.90
10812;DHT22;5458;51.496;7.334;2022-11-03T07:02:55;12.50;99.90
10812;DHT22;5458;51.496;7.334;2022-11-03T07:05:25;12.50;99.90
10812;DHT22;5458;51.496;7.334;2022-11-03T07:07:59;12.60;99.90
10812;DHT22;5458;51.496;7.334;2022-11-03T07:10:28;12.60;99.90
10812;DHT22;5458;51.496;7.334;2022-11-03T07:12:57;12.60;99.90
10812;DHT22;5458;51.496;7.334;2022-11-03T07:15:29;12.60;99.90
10812;DHT22;5458;51.496;7.334;2022-11-03T07:17:57;12.60;99.90
10812;DHT22;5458;51.496;7.334;2022-11-03T07:20:24;12.60;99.90
10812;DHT22;5458;51.496;7.334;2022-11-03T07:22:50;12.60;99.90
10812;DHT22;5458;51.496;7.334;2022-11-03T07:25:18;12.70;99.90
10812;DHT22;5458;51.496;7.334;2022-11-03T07:27:49;12.70;99.90
10812;DHT22;5458;51.496;7.334;2022-11-03T07:30:19;12.70;99.90
10812;DHT22;5458;51.496;7.334;2022-11-03T07:32:48;12.70;99.90
10812;DHT22;5458;51.496;7.334;2022-11-03T07:35:25;12.80;99.90
10812;DHT22;5458;51.496;7.334;2022-11-03T07:37:52;12.80;99.90
10812;DHT22;5458;51.496;7.334;2022-11-03T07:40:24;12.80;99.90
10812;DHT22;5458;51.496;7.334;2022-11-03T07:42:51;12.80;99.90
10812;DHT22;5458;51.496;7.334;2022-11-03T07:45:38;12.80;99.90
10812;DHT22;5458;51.496;7.334;2022-11-03T07:51:00;12.90;99.90
10812;DHT22;5458;51.496;7.334;2022-11-03T07:53:32;13.00;99.90
10812;DHT22;5458;51.496;7.334;2022-11-03T07:55:59;13.00;99.90
10812;DHT22;5458;51.496;7.334;2022-11-03T07:58:45;13.10;99.90
10812;DHT22;5458;51.496;7.334;2022-11-03T08:01:34;13.30;99.90
10812;DHT22;5458;51.496;7.334;2022-11-03T08:04:03;13.40;99.90
10812;DHT22;5458;51.496;7.334;2022-11-03T08:06:30;13.60;99.90
10812;DHT22;5458;51.496;7.334;2022-11-03T08:08:56;14.00;99.90
10812;DHT22;5458;51.496;7.334;2022-11-03T08:11:22;14.40;99.90
10812;DHT22;5458;51.496;7.334;2022-11-03T08:13:49;15.00;99.90
10812;DHT22;5458;51.496;7.334;2022-11-03T08:16:15;15.40;99.90
10812;DHT22;5458;51.496;7.334;2022-11-03T08:18:41;15.50;99.90
10812;DHT22;5458;51.496;7.334;2022-11-03T08:21:07;15.70;99.90
10812;DHT22;5458;51.496;7.334;2022-11-03T08:23:32;16.10;99.10
10812;DHT22;5458;51.496;7.334;2022-11-03T08:25:58;16.20;98.90
10812;DHT22;5458;51.496;7.334;2022-11-03T08:28:24;16.60;98.70
10812;DHT22;5458;51.496;7.334;2022-11-03T08:30:49;17.10;97.60
10812;DHT22;5458;51.496;7.334;2022-11-03T08:33:15;17.10;96.90
10812;DHT22;5458;51.496;7.334;2022-11-03T08:35:41;16.70;97.50
10812;DHT22;5458;51.496;7.334;2022-11-03T08:38:06;16.40;97.60
10812;DHT22;5458;51.496;7.334;2022-11-03T08:40:32;15.90;98.20
10812;DHT22;5458;51.496;7.334;2022-11-03T08:42:57;15.50;98.60
10812;DHT22;5458;51.496;7.334;2022-11-03T08:45:25;15.20;99.10
10812;DHT22;5458;51.496;7.334;2022-11-03T08:47:50;15.00;99.60
10812;DHT22;5458;51.496;7.334;2022-11-03T08:50:16;14.80;99.90
10812;DHT22;5458;51.496;7.334;2022-11-03T08:52:41;14.70;99.90
10812;DHT22;5458;51.496;7.334;2022-11-03T08:55:07;14.60;99.90
10812;DHT22;5458;51.496;7.334;2022-11-03T08:57:33;14.60;99.90
10812;DHT22;5458;51.496;7.334;2022-11-03T08:59:59;14.50;99.90
10812;DHT22;5458;51.496;7.334;2022-11-03T09:02:24;14.50;99.90
10812;DHT22;5458;51.496;7.334;2022-11-03T09:04:50;14.50;99.90
10812;DHT22;5458;51.496;7.334;2022-11-03T09:07:15;14.50;99.90
10812;DHT22;5458;51.496;7.334;2022-11-03T09:09:41;14.70;99.90
10812;DHT22;5458;51.496;7.334;2022-11-03T09:12:06;14.80;99.90
10812;DHT22;5458;51.496;7.334;2022-11-03T09:14:32;15.10;99.80
10812;DHT22;5458;51.496;7.334;2022-11-03T09:16:57;15.60;99.20
10812;DHT22;5458;51.496;7.334;2022-11-03T09:19:23;15.90;98.30
10812;DHT22;5458;51.496;7.334;2022-11-03T09:21:48;16.10;97.80
10812;DHT22;5458;51.496;7.334;2022-11-03T09:24:16;16.10;97.90
10812;DHT22;5458;51.496;7.334;2022-11-03T09:26:42;16.20;97.80
10812;DHT22;5458;51.496;7.334;2022-11-03T09:29:07;16.30;97.50
10812;DHT22;5458;51.496;7.334;2022-11-03T09:31:33;16.60;96.60
10812;DHT22;5458;51.496;7.334;2022-11-03T09:33:58;16.70;96.50
10812;DHT22;5458;51.496;7.334;2022-11-03T09:36:24;16.70;96.30
10812;DHT22;5458;51.496;7.334;2022-11-03T09:38:49;16.50;96.10
10812;DHT22;5458;51.496;7.334;2022-11-03T09:41:15;16.40;96.40
10812;DHT22;5458;51.496;7.334;2022-11-03T09:43:45;16.20;96.60
10812;DHT22;5458;51.496;7.334;2022-11-03T09:46:12;16.10;96.60
10812;DHT22;5458;51.496;7.334;2022-11-03T09:48:38;16.00;96.90
10812;DHT22;5458;51.496;7.334;2022-11-03T09:51:04;15.80;96.80
10812;DHT22;5458;51.496;7.334;2022-11-03T09:53:33;15.70;96.70
10812;DHT22;5458;51.496;7.334;2022-11-03T09:55:58;15.70;96.70
10812;DHT22;5458;51.496;7.334;2022-11-03T09:58:25;15.70;96.80
10812;DHT22;5458;51.496;7.334;2022-11-03T10:00:50;15.80;96.80
10812;DHT22;5458;51.496;7.334;2022-11-03T10:03:16;15.70;96.60
10812;DHT22;5458;51.496;7.334;2022-11-03T10:05:46;15.70;96.20
10812;DHT22;5458;51.496;7.334;2022-11-03T10:10:47;15.70;96.40
10812;DHT22;5458;51.496;7.334;2022-11-03T10:13:34;15.60;96.40
10812;DHT22;5458;51.496;7.334;2022-11-03T10:16:02;15.60;96.40
10812;DHT22;5458;51.496;7.334;2022-11-03T10:18:29;15.60;96.70
10812;DHT22;5458;51.496;7.334;2022-11-03T10:20:57;15.60;96.20
10812;DHT22;5458;51.496;7.334;2022-11-03T10:23:26;15.60;96.30
10812;DHT22;5458;51.496;7.334;2022-11-03T10:26:02;15.60;96.40
10812;DHT22;5458;51.496;7.334;2022-11-03T10:28:32;15.60;96.40
10812;DHT22;5458;51.496;7.334;2022-11-03T10:31:00;15.60;96.70
10812;DHT22;5458;51.496;7.334;2022-11-03T10:35:54;15.60;96.40
10812;DHT22;5458;51.496;7.334;2022-11-03T10:38:40;15.60;96.30
10812;DHT22;5458;51.496;7.334;2022-11-03T10:41:17;15.60;96.40
10812;DHT22;5458;51.496;7.334;2022-11-03T10:43:44;15.50;96.30
10812;DHT22;5458;51.496;7.334;2022-11-03T10:46:23;15.50;96.50
10812;DHT22;5458;51.496;7.334;2022-11-03T10:49:15;15.50;96.30
10812;DHT22;5458;51.496;7.334;2022-11-03T10:51:44;15.50;96.50
10812;DHT22;5458;51.496;7.334;2022-11-03T10:54:14;15.50;96.50
10812;DHT22;5458;51.496;7.334;2022-11-03T10:56:41;15.50;96.20
10812;DHT22;5458;51.496;7.334;2022-11-03T10:59:23;15.60;96.20
10812;DHT22;5458;51.496;7.334;2022-11-03T11:01:56;15.60;96.40
10812;DHT22;5458;51.496;7.334;2022-11-03T11:04:22;15.60;96.40
10812;DHT22;5458;51.496;7.334;2022-11-03T11:06:48;15.60;96.30
10812;DHT22;5458;51.496;7.334;2022-11-03T11:09:22;15.70;96.60
10812;DHT22;5458;51.496;7.334;2022-11-03T11:12:22;15.70;96.60
10812;DHT22;5458;51.496;7.334;2022-11-03T11:17:40;15.60;96.50
10812;DHT22;5458;51.496;7.334;2022-11-03T11:20:25;15.60;96.30
10812;DHT22;5458;51.496;7.334;2022-11-03T11:22:52;15.60;96.20
10812;DHT22;5458;51.496;7.334;2022-11-03T11:25:18;15.60;96.10
10812;DHT22;5458;51.496;7.334;2022-11-03T11:32:58;15.50;96.00
10812;DHT22;5458;51.496;7.334;2022-11-03T11:37:54;15.60;96.40
10812;DHT22;5458;51.496;7.334;2022-11-03T11:48:32;15.90;95.30
10812;DHT22;5458;51.496;7.334;2022-11-03T11:50:59;16.10;95.10
10812;DHT22;5458;51.496;7.334;2022-11-03T11:53:25;16.30;95.80
10812;DHT22;5458;51.496;7.334;2022-11-03T11:55:55;16.50;95.00
10812;DHT22;5458;51.496;7.334;2022-11-03T12:01:17;16.90;94.40
10812;DHT22;5458;51.496;7.334;2022-11-03T12:03:44;16.90;94.10
10812;DHT22;5458;51.496;7.334;2022-11-03T12:06:14;17.00;94.00
10812;DHT22;5458;51.496;7.334;2022-11-03T12:08:40;17.00;94.00
10812;DHT22;5458;51.496;7.334;2022-11-03T12:11:07;17.00;93.80
10812;DHT22;5458;51.496;7.334;2022-11-03T12:13:53;17.00;93.70
10812;DHT22;5458;51.496;7.334;2022-11-03T12:16:33;17.10;93.90
10812;DHT22;5458;51.496;7.334;2022-11-03T12:22:07;16.90;93.10
10812;DHT22;5458;51.496;7.334;2022-11-03T12:24:36;16.80;93.00
10812;DHT22;5458;51.496;7.334;2022-11-03T12:27:15;16.70;93.10
10812;DHT22;5458;51.496;7.334;2022-11-03T12:29:41;16.50;93.10
10812;DHT22;5458;51.496;7.334;2022-11-03T12:32:07;16.40;93.40
10812;DHT22;5458;51.496;7.334;2022-11-03T12:34:32;16.20;93.50
10812;DHT22;5458;51.496;7.334;2022-11-03T12:36:58;16.20;94.10
10812;DHT22;5458;51.496;7.334;2022-11-03T12:39:23;16.10;94.30
10812;DHT22;5458;51.496;7.334;2022-11-03T12:41:49;16.20;94.50
10812;DHT22;5458;51.496;7.334;2022-11-03T12:44:14;16.20;94.60
10812;DHT22;5458;51.496;7.334;2022-11-03T12:46:40;16.30;94.50
10812;DHT22;5458;51.496;7.334;2022-11-03T12:49:06;16.30;94.40
10812;DHT22;5458;51.496;7.334;2022-11-03T12:51:31;16.30;94.20
10812;DHT22;5458;51.496;7.334;2022-11-03T12:53:57;16.30;94.50
10812;DHT22;5458;51.496;7.334;2022-11-03T12:56:22;16.40;94.90
10812;DHT22;5458;51.496;7.334;2022-11-03T12:58:48;16.50;94.80
10812;DHT22;5458;51.496;7.334;2022-11-03T13:01:13;16.50;94.30
10812;DHT22;5458;51.496;7.334;2022-11-03T13:03:39;16.60;94.00
10812;DHT22;5458;51.496;7.334;2022-11-03T13:06:05;16.60;94.20
10812;DHT22;5458;51.496;7.334;2022-11-03T13:08:34;16.70;94.30
10812;DHT22;5458;51.496;7.334;2022-11-03T13:11:00;16.80;94.40
10812;DHT22;5458;51.496;7.334;2022-11-03T13:13:26;16.70;94.00
10812;DHT22;5458;51.496;7.334;2022-11-03T13:15:51;16.60;93.90
10812;DHT22;5458;51.496;7.334;2022-11-03T13:18:18;16.50;94.60
10812;DHT22;5458;51.496;7.334;2022-11-03T13:20:44;16.40;94.70
10812;DHT22;5458;51.496;7.334;2022-11-03T13:23:10;16.30;94.70
10812;DHT22;5458;51.496;7.334;2022-11-03T13:25:36;16.30;94.90
10812;DHT22;5458;51.496;7.334;2022-11-03T13:28:01;16.20;95.00
10812;DHT22;5458;51.496;7.334;2022-11-03T13:30:28;16.20;95.10
10812;DHT22;5458;51.496;7.334;2022-11-03T13:32:55;16.20;95.00
10812;DHT22;5458;51.496;7.334;2022-11-03T13:35:21;16.10;95.20
10812;DHT22;5458;51.496;7.334;2022-11-03T13:37:46;16.10;95.20
10812;DHT22;5458;51.496;7.334;2022-11-03T13:40:12;16.10;95.00
10812;DHT22;5458;51.496;7.334;2022-11-03T13:42:38;16.00;95.00
10812;DHT22;5458;51.496;7.334;2022-11-03T13:45:05;15.90;95.20
10812;DHT22;5458;51.496;7.334;2022-11-03T13:47:32;15.90;95.20
10812;DHT22;5458;51.496;7.334;2022-11-03T13:49:57;15.90;95.50
10812;DHT22;5458;51.496;7.334;2022-11-03T13:52:28;16.00;95.70
10812;DHT22;5458;51.496;7.334;2022-11-03T13:54:54;16.00;95.60
10812;DHT22;5458;51.496;7.334;2022-11-03T13:57:20;16.00;95.50
10812;DHT22;5458;51.496;7.334;2022-11-03T13:59:46;15.90;95.50
10812;DHT22;5458;51.496;7.334;2022-11-03T14:02:12;15.90;95.50
10812;DHT22;5458;51.496;7.334;2022-11-03T14:04:38;15.90;95.50
10812;DHT22;5458;51.496;7.334;2022-11-03T14:07:07;15.90;95.40
10812;DHT22;5458;51.496;7.334;2022-11-03T14:09:35;15.80;95.30
10812;DHT22;5458;51.496;7.334;2022-11-03T14:12:01;15.80;95.50
10812;DHT22;5458;51.496;7.334;2022-11-03T14:14:45;15.80;95.50
10812;DHT22;5458;51.496;7.334;2022-11-03T14:17:10;15.70;95.70
10812;DHT22;5458;51.496;7.334;2022-11-03T14:19:36;15.70;95.60
10812;DHT22;5458;51.496;7.334;2022-11-03T14:22:02;15.70;95.70
10812;DHT22;5458;51.496;7.334;2022-11-03T14:24:28;15.60;95.60
10812;DHT22;5458;51.496;7.334;2022-11-03T14:26:53;15.60;95.70
10812;DHT22;5458;51.496;7.334;2022-11-03T14:29:19;15.60;95.80
10812;DHT22;5458;51.496;7.334;2022-11-03T14:31:45;15.60;95.90
10812;DHT22;5458;51.496;7.334;2022-11-03T14:34:10;15.50;95.80
10812;DHT22;5458;51.496;7.334;2022-11-03T14:36:36;15.50;95.90
10812;DHT22;5458;51.496;7.334;2022-11-03T14:39:02;15.50;96.00
10812;DHT22;5458;51.496;7.334;2022-11-03T14:41:28;15.40;96.40
10812;DHT22;5458;51.496;7.334;2022-11-03T14:44:12;15.40;96.10
10812;DHT22;5458;51.496;7.334;2022-11-03T14:46:38;15.40;96.20
10812;DHT22;5458;51.496;7.334;2022-11-03T14:49:03;15.40;96.10
10812;DHT22;5458;51.496;7.334;2022-11-03T14:51:29;15.40;96.10
10812;DHT22;5458;51.496;7.334;2022-11-03T14:53:55;15.40;96.20
10812;DHT22;5458;51.496;7.334;2022-11-03T14:56:23;15.40;96.10
10812;DHT22;5458;51.496;7.334;2022-11-03T14:58:49;15.40;96.30
10812;DHT22;5458;51.496;7.334;2022-11-03T15:01:15;15.40;96.30
10812;DHT22;5458;51.496;7.334;2022-11-03T15:03:41;15.40;96.30
10812;DHT22;5458;51.496;7.334;2022-11-03T15:06:06;15.40;96.30
10812;DHT22;5458;51.496;7.334;2022-11-03T15:08:32;15.40;96.20
10812;DHT22;5458;51.496;7.334;2022-11-03T15:10:58;15.40;96.30
10812;DHT22;5458;51.496;7.334;2022-11-03T15:13:24;15.30;96.10
10812;DHT22;5458;51.496;7.334;2022-11-03T15:15:49;15.40;96.20
10812;DHT22;5458;51.496;7.334;2022-11-03T15:18:15;15.30;96.20
10812;DHT22;5458;51.496;7.334;2022-11-03T15:20:40;15.30;96.20
10812;DHT22;5458;51.496;7.334;2022-11-03T15:23:07;15.30;97.10
10812;DHT22;5458;51.496;7.334;2022-11-03T15:25:33;15.30;97.80
10812;DHT22;5458;51.496;7.334;2022-11-03T15:27:58;15.20;97.80
10812;DHT22;5458;51.496;7.334;2022-11-03T15:30:25;15.10;98.00
10812;DHT22;5458;51.496;7.334;2022-11-03T15:32:51;15.10;98.30
10812;DHT22;5458;51.496;7.334;2022-11-03T15:35:17;15.10;98.10
10812;DHT22;5458;51.496;7.334;2022-11-03T15:37:43;15.00;98.30
10812;DHT22;5458;51.496;7.334;2022-11-03T15:40:13;15.00;98.30
10812;DHT22;5458;51.496;7.334;2022-11-03T15:42:39;15.00;98.50
10812;DHT22;5458;51.496;7.334;2022-11-03T15:45:07;15.00;98.20
10812;DHT22;5458;51.496;7.334;2022-11-03T15:47:33;15.00;98.10
10812;DHT22;5458;51.496;7.334;2022-11-03T15:49:58;14.90;97.80
10812;DHT22;5458;51.496;7.334;2022-11-03T15:52:24;14.90;98.40
10812;DHT22;5458;51.496;7.334;2022-11-03T15:54:50;14.90;98.80
10812;DHT22;5458;51.496;7.334;2022-11-03T15:57:15;14.80;99.50
10812;DHT22;5458;51.496;7.334;2022-11-03T15:59:41;14.80;99.90
10812;DHT22;5458;51.496;7.334;2022-11-03T16:02:07;14.80;99.90
10812;DHT22;5458;51.496;7.334;2022-11-03T16:04:33;14.70;99.90
10812;DHT22;5458;51.496;7.334;2022-11-03T16:06:59;14.60;99.90
10812;DHT22;5458;51.496;7.334;2022-11-03T16:09:24;14.60;99.90
10812;DHT22;5458;51.496;7.334;2022-11-03T16:11:50;14.50;99.90
10812;DHT22;5458;51.496;7.334;2022-11-03T16:14:15;14.50;99.90
10812;DHT22;5458;51.496;7.334;2022-11-03T16:16:41;14.50;99.90
10812;DHT22;5458;51.496;7.334;2022-11-03T16:19:07;14.40;99.90
10812;DHT22;5458;51.496;7.334;2022-11-03T16:21:32;14.30;99.90
10812;DHT22;5458;51.496;7.334;2022-11-03T16:23:58;14.30;99.90
10812;DHT22;5458;51.496;7.334;2022-11-03T16:26:23;14.20;99.90
10812;DHT22;5458;51.496;7.334;2022-11-03T16:28:49;14.10;99.90
10812;DHT22;5458;51.496;7.334;2022-11-03T16:31:15;14.10;99.90
10812;DHT22;5458;51.496;7.334;2022-11-03T16:33:41;14.00;99.90
10812;DHT22;5458;51.496;7.334;2022-11-03T16:36:06;14.00;99.90
10812;DHT22;5458;51.496;7.334;2022-11-03T16:38:32;13.90;99.90
10812;DHT22;5458;51.496;7.334;2022-11-03T16:40:58;13.80;99.90
10812;DHT22;5458;51.496;7.334;2022-11-03T16:43:23;13.80;99.90
10812;DHT22;5458;51.496;7.334;2022-11-03T16:45:49;13.70;99.90
10812;DHT22;5458;51.496;7.334;2022-11-03T16:48:14;13.60;99.90
10812;DHT22;5458;51.496;7.334;2022-11-03T16:50:40;13.60;99.90
10812;DHT22;5458;51.496;7.334;2022-11-03T16:53:06;13.50;99.90
10812;DHT22;5458;51.496;7.334;2022-11-03T16:55:31;13.50;99.90
10812;DHT22;5458;51.496;7.334;2022-11-03T16:57:57;13.50;99.90